createdAt,value
2023-06-30T00:00:16.308Z,16.92
2023-06-30T00:03:05.969Z,16.90
2023-06-30T00:05:32.948Z,16.89
2023-06-30T00:08:00.111Z,16.90
2023-06-30T00:10:27.323Z,16.88
2023-06-30T00:12:54.584Z,16.88
2023-06-30T00:15:21.543Z,16.86
2023-06-30T00:17:49.248Z,16.83
2023-06-30T00:20:16.352Z,16.81
2023-06-30T00:22:43.421Z,16.82
2023-06-30T00:25:12.180Z,16.81
2023-06-30T00:27:40.409Z,16.77
2023-06-30T00:30:07.838Z,16.72
2023-06-30T00:32:34.830Z,16.71
2023-06-30T00:35:01.532Z,16.70
2023-06-30T00:37:28.388Z,16.69
2023-06-30T00:39:55.432Z,16.67
2023-06-30T00:42:24.523Z,16.64
2023-06-30T00:44:51.397Z,16.60
2023-06-30T00:47:19.260Z,16.58
2023-06-30T00:49:46.729Z,16.56
2023-06-30T00:52:13.577Z,16.56
2023-06-30T00:54:41.499Z,16.57
2023-06-30T00:57:08.498Z,16.57
2023-06-30T00:59:35.445Z,16.57
2023-06-30T01:02:10.651Z,16.55
2023-06-30T01:05:06.717Z,16.54
2023-06-30T01:07:36.769Z,16.54
2023-06-30T01:10:11.000Z,16.54
2023-06-30T01:12:38.644Z,16.54
2023-06-30T01:15:07.963Z,16.53
2023-06-30T01:17:40.676Z,16.53
2023-06-30T01:20:11.007Z,16.49
2023-06-30T01:22:51.291Z,16.45
2023-06-30T01:25:21.948Z,16.43
2023-06-30T01:27:49.997Z,16.40
2023-06-30T01:30:18.245Z,16.39
2023-06-30T01:32:47.284Z,16.37
2023-06-30T01:35:14.350Z,16.34
2023-06-30T01:37:41.298Z,16.32
2023-06-30T01:40:09.170Z,16.30
2023-06-30T01:42:38.518Z,16.28
2023-06-30T01:45:08.094Z,16.22
2023-06-30T01:47:36.058Z,16.16
2023-06-30T01:50:03.505Z,16.10
2023-06-30T01:52:30.664Z,16.08
2023-06-30T01:54:58.498Z,16.08
2023-06-30T01:57:25.327Z,16.06
2023-06-30T01:59:52.278Z,16.06
2023-06-30T02:02:19.157Z,16.06
2023-06-30T02:04:46.018Z,16.07
2023-06-30T02:07:12.749Z,16.09
2023-06-30T02:09:47.889Z,16.09
2023-06-30T02:12:16.598Z,16.10
2023-06-30T02:14:43.501Z,16.12
2023-06-30T02:17:11.952Z,16.13
2023-06-30T02:19:38.696Z,16.14
2023-06-30T02:22:05.597Z,16.12
2023-06-30T02:24:32.692Z,16.10
2023-06-30T02:27:00.365Z,16.08
2023-06-30T02:29:27.307Z,16.08
2023-06-30T02:31:54.183Z,16.08
2023-06-30T02:34:22.154Z,16.07
2023-06-30T02:36:49.085Z,16.05
2023-06-30T02:39:17.069Z,16.05
2023-06-30T02:41:43.942Z,16.03
2023-06-30T02:44:10.982Z,16.01
2023-06-30T02:46:38.065Z,15.99
2023-06-30T02:49:04.676Z,15.97
2023-06-30T02:51:31.608Z,15.96
2023-06-30T02:53:58.682Z,15.95
2023-06-30T02:56:25.634Z,15.95
2023-06-30T02:58:52.967Z,15.94
2023-06-30T03:01:22.204Z,15.92
2023-06-30T03:03:50.004Z,15.90
2023-06-30T03:06:17.308Z,15.88
2023-06-30T03:08:45.044Z,15.84
2023-06-30T03:11:12.353Z,15.76
2023-06-30T03:13:39.393Z,15.68
2023-06-30T03:16:08.280Z,15.63
2023-06-30T03:18:35.632Z,15.58
2023-06-30T03:21:03.035Z,15.56
2023-06-30T03:23:30.157Z,15.54
2023-06-30T03:25:57.028Z,15.54
2023-06-30T03:28:24.155Z,15.54
2023-06-30T03:30:50.963Z,15.52
2023-06-30T03:33:18.158Z,15.49
2023-06-30T03:35:47.211Z,15.44
2023-06-30T03:38:14.725Z,15.41
2023-06-30T03:40:41.809Z,15.39
2023-06-30T03:43:08.679Z,15.41
2023-06-30T03:45:35.839Z,15.44
2023-06-30T03:48:02.675Z,15.47
2023-06-30T03:50:29.728Z,15.50
2023-06-30T03:52:58.416Z,15.52
2023-06-30T03:55:25.334Z,15.54
2023-06-30T03:57:52.786Z,15.57
2023-06-30T04:00:20.586Z,15.57
2023-06-30T04:02:47.662Z,15.56
2023-06-30T04:05:14.976Z,15.55
2023-06-30T04:07:42.287Z,15.57
2023-06-30T04:10:09.582Z,15.59
2023-06-30T04:12:36.642Z,15.61
2023-06-30T04:15:05.024Z,15.64
2023-06-30T04:17:31.787Z,15.65
2023-06-30T04:19:58.752Z,15.66
2023-06-30T04:22:25.684Z,15.67
2023-06-30T04:24:52.476Z,15.71
2023-06-30T04:27:19.282Z,15.72
2023-06-30T04:29:46.120Z,15.74
2023-06-30T04:32:12.991Z,15.76
2023-06-30T04:34:40.034Z,15.76
2023-06-30T04:37:07.075Z,15.77
2023-06-30T04:39:33.937Z,15.77
2023-06-30T04:42:01.119Z,15.80
2023-06-30T04:44:28.130Z,15.83
2023-06-30T04:46:55.708Z,15.87
2023-06-30T04:49:22.552Z,15.88
2023-06-30T04:51:49.395Z,15.87
2023-06-30T04:54:16.063Z,15.89
2023-06-30T04:56:42.944Z,15.94
2023-06-30T04:59:10.155Z,16.00
2023-06-30T05:01:36.849Z,16.08
2023-06-30T05:04:03.815Z,16.15
2023-06-30T05:06:30.890Z,16.20
2023-06-30T05:08:57.753Z,16.21
2023-06-30T05:11:24.468Z,16.21
2023-06-30T05:13:51.520Z,16.24
2023-06-30T05:16:18.500Z,16.25
2023-06-30T05:18:45.353Z,16.26
2023-06-30T05:21:12.018Z,16.29
2023-06-30T05:23:38.689Z,16.33
2023-06-30T05:26:06.813Z,16.37
2023-06-30T05:28:35.459Z,16.40
2023-06-30T05:31:03.109Z,16.45
2023-06-30T05:33:30.032Z,16.47
2023-06-30T05:35:56.782Z,16.50
2023-06-30T05:38:23.836Z,16.53
2023-06-30T05:40:50.676Z,16.56
2023-06-30T05:43:18.537Z,16.60
2023-06-30T05:45:45.659Z,16.65
2023-06-30T05:48:12.745Z,16.71
2023-06-30T05:50:42.193Z,16.74
2023-06-30T05:53:09.529Z,16.77
2023-06-30T05:55:36.182Z,16.81
2023-06-30T05:58:03.011Z,16.87
2023-06-30T06:00:29.974Z,16.92
2023-06-30T06:02:57.186Z,16.99
2023-06-30T06:05:24.164Z,17.08
2023-06-30T06:07:50.917Z,17.17
2023-06-30T06:10:17.561Z,17.26
2023-06-30T06:12:44.209Z,17.37
2023-06-30T06:15:11.389Z,17.48
2023-06-30T06:17:38.143Z,17.57
2023-06-30T06:20:05.772Z,17.67
2023-06-30T06:22:32.696Z,17.79
2023-06-30T06:24:59.569Z,17.88
2023-06-30T06:27:26.322Z,17.97
2023-06-30T06:29:53.173Z,18.05
2023-06-30T06:32:19.959Z,18.13
2023-06-30T06:34:46.832Z,18.21
2023-06-30T06:37:13.516Z,18.27
2023-06-30T06:39:40.368Z,18.33
2023-06-30T06:42:07.665Z,18.39
2023-06-30T06:44:34.297Z,18.46
2023-06-30T06:47:38.901Z,18.51
2023-06-30T06:50:05.846Z,18.59
2023-06-30T06:52:33.053Z,18.65
2023-06-30T06:54:59.758Z,18.71
2023-06-30T06:57:26.691Z,18.77
2023-06-30T06:59:53.523Z,18.82
2023-06-30T07:02:20.158Z,18.88
2023-06-30T07:04:46.983Z,18.93
2023-06-30T07:07:13.647Z,18.98
2023-06-30T07:09:40.614Z,19.05
2023-06-30T07:12:08.211Z,19.11
2023-06-30T07:14:36.432Z,19.17
2023-06-30T07:17:03.720Z,19.23
2023-06-30T07:19:30.520Z,19.30
2023-06-30T07:21:57.248Z,19.36
2023-06-30T07:24:24.455Z,19.43
2023-06-30T07:26:51.754Z,19.50
2023-06-30T07:29:18.880Z,19.57
2023-06-30T07:31:47.508Z,19.63
2023-06-30T07:34:15.190Z,19.70
2023-06-30T07:36:42.034Z,19.77
2023-06-30T07:39:08.678Z,19.83
2023-06-30T07:41:35.613Z,19.90
2023-06-30T07:44:03.354Z,19.97
2023-06-30T07:46:31.528Z,20.02
2023-06-30T07:48:58.453Z,20.09
2023-06-30T07:51:25.055Z,20.15
2023-06-30T07:53:51.799Z,20.21
2023-06-30T07:56:18.457Z,20.28
2023-06-30T07:58:45.469Z,20.35
2023-06-30T08:01:12.240Z,20.42
2023-06-30T08:03:39.364Z,20.48
2023-06-30T08:06:06.488Z,20.54
2023-06-30T08:08:33.670Z,20.61
2023-06-30T08:11:00.560Z,20.68
2023-06-30T08:13:27.511Z,20.74
2023-06-30T08:15:54.679Z,20.81
2023-06-30T08:18:30.426Z,20.87
2023-06-30T08:21:03.106Z,20.94
2023-06-30T08:23:30.444Z,21.00
2023-06-30T08:25:57.100Z,21.06
2023-06-30T08:28:24.028Z,21.12
2023-06-30T08:30:51.263Z,21.17
2023-06-30T08:33:30.651Z,21.21
2023-06-30T08:36:05.999Z,21.27
2023-06-30T08:38:32.675Z,21.28
2023-06-30T08:41:00.570Z,21.31
2023-06-30T08:43:29.563Z,21.37
2023-06-30T08:45:56.521Z,21.44
2023-06-30T08:48:24.778Z,21.51
2023-06-30T08:50:53.404Z,21.60
2023-06-30T08:53:23.822Z,21.67
2023-06-30T08:55:51.393Z,21.74
2023-06-30T08:58:26.518Z,21.82
2023-06-30T09:00:54.806Z,21.89
2023-06-30T09:03:23.117Z,21.95
2023-06-30T09:05:59.419Z,22.03
2023-06-30T09:09:10.618Z,22.10
2023-06-30T09:11:39.923Z,22.20
2023-06-30T09:14:08.667Z,22.27
2023-06-30T09:16:36.346Z,22.33
2023-06-30T09:19:04.775Z,22.39
2023-06-30T09:21:31.814Z,22.45
2023-06-30T09:23:58.530Z,22.51
2023-06-30T09:26:31.449Z,22.57
2023-06-30T09:29:00.072Z,22.64
2023-06-30T09:31:34.187Z,22.70
2023-06-30T09:34:14.719Z,22.76
2023-06-30T09:36:48.963Z,22.83
2023-06-30T09:39:16.183Z,22.89
2023-06-30T09:41:44.140Z,22.95
2023-06-30T09:44:12.241Z,23.01
2023-06-30T09:46:50.066Z,23.07
2023-06-30T09:49:27.454Z,23.13
2023-06-30T09:51:56.414Z,23.20
2023-06-30T09:54:39.330Z,23.26
2023-06-30T09:57:11.158Z,23.34
2023-06-30T09:59:38.055Z,23.40
2023-06-30T10:02:05.120Z,23.45
2023-06-30T10:04:32.661Z,23.51
2023-06-30T10:07:02.622Z,23.56
2023-06-30T10:09:30.819Z,23.61
2023-06-30T10:11:59.331Z,23.67
2023-06-30T10:14:31.323Z,23.73
2023-06-30T10:17:01.271Z,23.78
2023-06-30T10:19:32.252Z,23.83
2023-06-30T10:21:59.638Z,23.88
2023-06-30T10:24:28.557Z,23.94
2023-06-30T10:26:58.441Z,23.99
2023-06-30T10:29:25.272Z,24.04
2023-06-30T10:31:51.916Z,24.09
2023-06-30T10:34:19.343Z,24.14
2023-06-30T10:36:46.886Z,24.19
2023-06-30T10:39:14.654Z,24.24
2023-06-30T10:41:51.434Z,24.29
2023-06-30T10:44:21.780Z,24.33
2023-06-30T10:46:48.765Z,24.39
2023-06-30T10:49:39.642Z,24.44
2023-06-30T10:52:30.650Z,24.49
2023-06-30T10:55:06.407Z,24.52
2023-06-30T10:57:39.864Z,24.58
2023-06-30T11:00:10.858Z,24.64
2023-06-30T11:02:47.674Z,24.68
2023-06-30T11:05:21.591Z,24.74
2023-06-30T11:07:50.079Z,24.78
2023-06-30T11:10:35.078Z,24.84
2023-06-30T11:13:05.986Z,24.89
2023-06-30T11:15:43.321Z,24.94
2023-06-30T11:18:15.423Z,24.98
2023-06-30T11:21:01.919Z,25.02
2023-06-30T11:23:33.729Z,25.06
2023-06-30T11:26:18.208Z,25.07
2023-06-30T11:28:50.120Z,25.11
2023-06-30T11:31:17.856Z,25.16
2023-06-30T11:33:46.869Z,25.22
2023-06-30T11:36:18.613Z,25.27
2023-06-30T11:38:50.321Z,25.33
2023-06-30T11:41:24.040Z,25.39
2023-06-30T11:43:54.213Z,25.45
2023-06-30T11:46:22.048Z,25.50
2023-06-30T11:48:50.210Z,25.54
2023-06-30T11:51:20.313Z,25.56
2023-06-30T11:53:47.955Z,25.60
2023-06-30T11:56:14.705Z,25.62
2023-06-30T11:58:49.011Z,25.66
2023-06-30T12:01:16.714Z,25.70
2023-06-30T12:03:43.656Z,25.75
2023-06-30T12:06:10.409Z,25.78
2023-06-30T12:08:39.420Z,25.81
2023-06-30T12:11:09.271Z,25.84
2023-06-30T12:13:41.575Z,25.86
2023-06-30T12:16:08.455Z,25.85
2023-06-30T12:18:37.658Z,25.80
2023-06-30T12:21:12.570Z,25.81
2023-06-30T12:23:43.917Z,25.84
2023-06-30T12:26:14.396Z,25.90
2023-06-30T12:28:43.046Z,25.95
2023-06-30T12:31:10.352Z,26.00
2023-06-30T12:33:37.235Z,26.04
2023-06-30T12:36:06.865Z,26.08
2023-06-30T12:38:33.995Z,26.12
2023-06-30T12:41:01.103Z,26.17
2023-06-30T12:43:28.850Z,26.23
2023-06-30T12:45:55.912Z,26.28
2023-06-30T12:48:23.070Z,26.34
2023-06-30T12:50:50.124Z,26.39
2023-06-30T12:53:17.074Z,26.44
2023-06-30T12:55:44.004Z,26.47
2023-06-30T12:58:11.009Z,26.50
2023-06-30T13:00:38.217Z,26.53
2023-06-30T13:03:05.181Z,26.56
2023-06-30T13:05:32.832Z,26.59
2023-06-30T13:07:59.839Z,26.62
2023-06-30T13:10:28.023Z,26.64
2023-06-30T13:12:58.591Z,26.65
2023-06-30T13:15:26.499Z,26.65
2023-06-30T13:17:53.356Z,26.66
2023-06-30T13:20:20.363Z,26.68
2023-06-30T13:23:03.317Z,26.70
2023-06-30T13:25:33.844Z,26.72
2023-06-30T13:28:00.662Z,26.75
2023-06-30T13:30:28.278Z,26.78
2023-06-30T13:32:55.291Z,26.82
2023-06-30T13:35:22.345Z,26.84
2023-06-30T13:37:50.006Z,26.86
2023-06-30T13:40:16.919Z,26.89
2023-06-30T13:42:43.913Z,26.92
2023-06-30T13:45:11.305Z,26.94
2023-06-30T13:47:38.215Z,26.95
2023-06-30T13:50:06.320Z,26.96
2023-06-30T13:52:33.393Z,26.96
2023-06-30T13:55:00.201Z,26.98
2023-06-30T13:57:26.869Z,27.00
2023-06-30T13:59:53.713Z,27.01
2023-06-30T14:02:21.454Z,27.02
2023-06-30T14:04:48.367Z,27.03
2023-06-30T14:07:15.217Z,27.05
2023-06-30T14:09:42.803Z,27.08
2023-06-30T14:12:09.832Z,27.08
2023-06-30T14:14:36.826Z,27.10
2023-06-30T14:17:04.533Z,27.13
2023-06-30T14:19:31.470Z,27.14
2023-06-30T14:21:58.867Z,27.17
2023-06-30T14:24:25.776Z,27.19
2023-06-30T14:26:52.438Z,27.22
2023-06-30T14:29:19.078Z,27.23
2023-06-30T14:31:45.758Z,27.23
2023-06-30T14:34:12.462Z,27.21
2023-06-30T14:36:40.412Z,27.20
2023-06-30T14:39:07.081Z,27.18
2023-06-30T14:41:33.952Z,27.16
2023-06-30T14:44:01.733Z,27.14
2023-06-30T14:46:29.689Z,27.14
2023-06-30T14:48:56.611Z,27.16
2023-06-30T14:51:23.401Z,27.18
2023-06-30T14:53:50.112Z,27.21
2023-06-30T14:56:16.954Z,27.24
2023-06-30T14:58:44.289Z,27.30
2023-06-30T15:01:11.161Z,27.34
2023-06-30T15:03:37.974Z,27.36
2023-06-30T15:06:05.011Z,27.40
2023-06-30T15:08:31.897Z,27.43
2023-06-30T15:10:58.627Z,27.46
2023-06-30T15:13:25.505Z,27.45
2023-06-30T15:15:52.359Z,27.40
2023-06-30T15:18:19.236Z,27.36
2023-06-30T15:20:46.048Z,27.37
2023-06-30T15:23:13.204Z,27.35
2023-06-30T15:25:40.333Z,27.33
2023-06-30T15:28:08.395Z,27.34
2023-06-30T15:30:35.591Z,27.36
2023-06-30T15:33:08.890Z,27.40
2023-06-30T15:35:36.142Z,27.43
2023-06-30T15:38:02.813Z,27.45
2023-06-30T15:40:29.755Z,27.47
2023-06-30T15:42:56.646Z,27.49
2023-06-30T15:45:23.381Z,27.50
2023-06-30T15:47:53.716Z,27.51
2023-06-30T15:50:20.536Z,27.52
2023-06-30T15:52:47.315Z,27.54
2023-06-30T15:55:15.755Z,27.56
2023-06-30T15:57:43.749Z,27.58
2023-06-30T16:00:11.127Z,27.59
2023-06-30T16:02:42.140Z,27.60
2023-06-30T16:05:09.969Z,27.60
2023-06-30T16:07:37.240Z,27.61
2023-06-30T16:10:05.754Z,27.61
2023-06-30T16:12:32.650Z,27.61
2023-06-30T16:14:59.762Z,27.60
2023-06-30T16:17:26.919Z,27.60
2023-06-30T16:19:53.770Z,27.58
2023-06-30T16:22:21.025Z,27.55
2023-06-30T16:24:47.878Z,27.53
2023-06-30T16:27:14.820Z,27.52
2023-06-30T16:29:41.653Z,27.51
2023-06-30T16:32:08.974Z,27.50
2023-06-30T16:34:37.352Z,27.50
2023-06-30T16:37:04.899Z,27.49
2023-06-30T16:39:31.836Z,27.48
2023-06-30T16:41:58.796Z,27.46
2023-06-30T16:44:28.825Z,27.45
2023-06-30T16:46:55.937Z,27.44
2023-06-30T16:49:22.773Z,27.43
2023-06-30T16:51:49.686Z,27.42
2023-06-30T16:54:16.567Z,27.40
2023-06-30T16:56:43.994Z,27.39
2023-06-30T16:59:10.833Z,27.36
2023-06-30T17:01:37.587Z,27.34
2023-06-30T17:04:04.868Z,27.31
2023-06-30T17:06:31.744Z,27.28
2023-06-30T17:08:58.530Z,27.25
2023-06-30T17:11:25.284Z,27.21
2023-06-30T17:13:52.118Z,27.17
2023-06-30T17:16:18.843Z,27.09
2023-06-30T17:18:46.323Z,26.97
2023-06-30T17:21:13.182Z,26.86
2023-06-30T17:23:40.369Z,26.76
2023-06-30T17:26:08.270Z,26.65
2023-06-30T17:28:36.593Z,26.52
2023-06-30T17:31:03.279Z,26.38
2023-06-30T17:33:29.930Z,26.26
2023-06-30T17:35:56.854Z,26.15
2023-06-30T17:38:24.021Z,26.02
2023-06-30T17:40:51.099Z,25.89
2023-06-30T17:43:17.936Z,25.77
2023-06-30T17:45:45.092Z,25.65
2023-06-30T17:48:12.634Z,25.55
2023-06-30T17:50:39.877Z,25.45
2023-06-30T17:53:06.605Z,25.37
2023-06-30T17:55:33.555Z,25.31
2023-06-30T17:58:00.971Z,25.24
2023-06-30T18:00:28.073Z,25.17
2023-06-30T18:02:54.851Z,25.08
2023-06-30T18:05:21.945Z,24.97
2023-06-30T18:07:48.919Z,24.83
2023-06-30T18:10:16.640Z,24.71
2023-06-30T18:12:43.375Z,24.61
2023-06-30T18:15:11.622Z,24.46
2023-06-30T18:17:38.497Z,24.30
2023-06-30T18:20:06.645Z,24.16
2023-06-30T18:22:33.504Z,24.04
2023-06-30T18:25:00.489Z,23.92
2023-06-30T18:27:27.297Z,23.76
2023-06-30T18:29:54.278Z,23.63
2023-06-30T18:32:21.163Z,23.50
2023-06-30T18:34:49.756Z,23.38
2023-06-30T18:37:16.417Z,23.29
2023-06-30T18:39:43.385Z,23.20
2023-06-30T18:42:10.508Z,23.08
2023-06-30T18:44:37.658Z,22.98
2023-06-30T18:47:06.372Z,22.89
2023-06-30T18:49:33.420Z,22.77
2023-06-30T18:52:00.820Z,22.63
2023-06-30T18:54:27.959Z,22.48
2023-06-30T18:56:55.062Z,22.40
2023-06-30T18:59:22.372Z,22.32
2023-06-30T19:01:49.269Z,22.20
2023-06-30T19:04:16.861Z,22.08
2023-06-30T19:06:44.340Z,21.99
2023-06-30T19:09:11.194Z,21.89
2023-06-30T19:11:38.392Z,21.80
2023-06-30T19:14:05.093Z,21.69
2023-06-30T19:16:31.983Z,21.58
2023-06-30T19:18:58.801Z,21.50
2023-06-30T19:21:25.548Z,21.40
2023-06-30T19:23:52.702Z,21.31
2023-06-30T19:26:21.141Z,21.18
2023-06-30T19:28:49.249Z,21.03
2023-06-30T19:31:16.724Z,20.89
2023-06-30T19:33:43.689Z,20.72
2023-06-30T19:36:10.862Z,20.60
2023-06-30T19:38:37.916Z,20.46
2023-06-30T19:41:04.698Z,20.36
2023-06-30T19:43:31.500Z,20.28
2023-06-30T19:45:59.681Z,20.17
2023-06-30T19:48:26.418Z,20.06
2023-06-30T19:50:53.608Z,19.94
2023-06-30T19:53:20.329Z,19.87
2023-06-30T19:55:47.272Z,19.80
2023-06-30T19:58:14.323Z,19.72
2023-06-30T20:00:41.092Z,19.64
2023-06-30T20:03:08.001Z,19.57
2023-06-30T20:05:36.102Z,19.51
2023-06-30T20:08:03.473Z,19.45
2023-06-30T20:10:30.620Z,19.41
2023-06-30T20:12:57.444Z,19.36
2023-06-30T20:15:24.169Z,19.32
2023-06-30T20:17:50.928Z,19.25
2023-06-30T20:20:17.912Z,19.18
2023-06-30T20:22:46.063Z,19.13
2023-06-30T20:25:14.790Z,19.09
2023-06-30T20:27:43.636Z,19.05
2023-06-30T20:30:13.192Z,19.00
2023-06-30T20:32:39.938Z,18.92
2023-06-30T20:35:09.392Z,18.84
2023-06-30T20:37:36.508Z,18.80
2023-06-30T20:40:03.975Z,18.74
2023-06-30T20:42:31.226Z,18.68
2023-06-30T20:44:58.163Z,18.60
2023-06-30T20:47:25.117Z,18.52
2023-06-30T20:49:52.192Z,18.44
2023-06-30T20:52:19.028Z,18.39
2023-06-30T20:54:46.044Z,18.31
2023-06-30T20:57:12.689Z,18.29
2023-06-30T20:59:39.410Z,18.27
2023-06-30T21:02:06.683Z,18.25
2023-06-30T21:04:33.383Z,18.22
2023-06-30T21:07:00.152Z,18.19
2023-06-30T21:09:27.123Z,18.16
2023-06-30T21:11:53.829Z,18.13
2023-06-30T21:14:21.692Z,18.11
2023-06-30T21:16:48.798Z,18.09
2023-06-30T21:19:16.309Z,18.04
2023-06-30T21:21:43.161Z,17.98
2023-06-30T21:24:10.037Z,17.95
2023-06-30T21:26:40.155Z,17.91
2023-06-30T21:29:07.525Z,17.88
2023-06-30T21:31:34.162Z,17.85
2023-06-30T21:34:01.194Z,17.79
2023-06-30T21:36:28.162Z,17.74
2023-06-30T21:38:55.078Z,17.69
2023-06-30T21:41:22.314Z,17.61
2023-06-30T21:43:49.212Z,17.55
2023-06-30T21:46:16.734Z,17.50
2023-06-30T21:48:44.561Z,17.46
2023-06-30T21:51:11.769Z,17.44
2023-06-30T21:53:38.564Z,17.45
2023-06-30T21:56:05.803Z,17.44
2023-06-30T21:58:33.049Z,17.45
2023-06-30T22:01:00.349Z,17.45
2023-06-30T22:03:27.571Z,17.44
2023-06-30T22:05:55.946Z,17.42
2023-06-30T22:08:25.752Z,17.44
2023-06-30T22:10:55.223Z,17.45
2023-06-30T22:13:22.930Z,17.41
2023-06-30T22:15:49.727Z,17.36
2023-06-30T22:18:16.531Z,17.30
2023-06-30T22:20:43.386Z,17.26
2023-06-30T22:23:10.269Z,17.22
2023-06-30T22:25:37.951Z,17.15
2023-06-30T22:28:04.863Z,17.08
2023-06-30T22:30:32.304Z,17.03
2023-06-30T22:32:59.099Z,16.99
2023-06-30T22:35:25.811Z,16.93
2023-06-30T22:37:52.968Z,16.90
2023-06-30T22:40:20.114Z,16.86
2023-06-30T22:42:48.494Z,16.84
2023-06-30T22:45:15.579Z,16.85
2023-06-30T22:47:42.794Z,16.82
2023-06-30T22:50:10.129Z,16.80
2023-06-30T22:52:39.067Z,16.75
2023-06-30T22:55:07.476Z,16.73
2023-06-30T22:57:34.246Z,16.76
2023-06-30T23:00:01.444Z,16.78
2023-06-30T23:02:28.236Z,16.77
2023-06-30T23:04:55.391Z,16.71
2023-06-30T23:07:22.308Z,16.65
2023-06-30T23:09:49.103Z,16.61
2023-06-30T23:12:15.834Z,16.60
2023-06-30T23:14:42.566Z,16.55
2023-06-30T23:17:15.366Z,16.51
2023-06-30T23:19:48.415Z,16.50
2023-06-30T23:22:19.064Z,16.44
2023-06-30T23:24:50.130Z,16.38
2023-06-30T23:27:18.593Z,16.31
2023-06-30T23:29:49.366Z,16.25
2023-06-30T23:32:19.754Z,16.18
2023-06-30T23:34:48.248Z,16.16
2023-06-30T23:37:17.456Z,16.15
2023-06-30T23:39:47.494Z,16.13
2023-06-30T23:42:14.304Z,16.14
2023-06-30T23:44:41.062Z,16.11
2023-06-30T23:47:16.392Z,16.09
2023-06-30T23:49:43.149Z,16.07
2023-06-30T23:52:10.006Z,16.00
2023-06-30T23:54:36.765Z,15.97
2023-06-30T23:57:04.735Z,15.98
2023-06-30T23:59:31.561Z,15.99
